Time;durP1;ratioP1;P1;durP2;ratioP2;P2;SDS_P1;SDS_P2;PMS_P1;PMS_P2;Temp;Humidity;BMP_temperature;BMP_pressure;BME280_temperature;BME280_humidity;BME280_pressure;Samples;Min_cycle;Max_cycle;Signal;HPM_P1;HPM_P2
2021/09/06 00:02:07;;;;;;;23.95;18.70;;;16.80;84.80;;;;;;5089224;28;20031;-76
2021/09/06 00:04:34;;;;;;;23.13;17.88;;;16.70;84.80;;;;;;5097254;28;20028;-76
2021/09/06 00:07:00;;;;;;;25.35;18.55;;;16.70;84.80;;;;;;5109574;28;20043;-76
2021/09/06 00:09:25;;;;;;;26.75;19.08;;;16.70;84.80;;;;;;5106130;28;20032;-76
2021/09/06 00:11:51;;;;;;;25.10;18.75;;;16.70;85.00;;;;;;5093368;28;20394;-76
2021/09/06 00:14:18;;;;;;;23.25;18.50;;;16.70;85.10;;;;;;5094045;28;20051;-76
2021/09/06 00:16:44;;;;;;;25.98;18.13;;;16.60;85.20;;;;;;5091862;28;20028;-76
2021/09/06 00:19:09;;;;;;;27.25;19.40;;;16.60;85.40;;;;;;5107903;28;20065;-76
2021/09/06 00:21:35;;;;;;;24.08;18.30;;;16.60;85.50;;;;;;5080329;28;20052;-76
2021/09/06 00:24:00;;;;;;;26.08;18.83;;;16.50;85.60;;;;;;5103110;28;20093;-76
2021/09/06 00:26:28;;;;;;;24.00;17.95;;;16.50;85.60;;;;;;5102942;28;20040;-76
2021/09/06 00:28:54;;;;;;;26.65;19.30;;;16.50;85.60;;;;;;5091003;28;20086;-76
2021/09/06 00:31:19;;;;;;;28.52;20.10;;;16.50;85.60;;;;;;5102177;28;20047;-76
2021/09/06 00:33:45;;;;;;;25.63;19.85;;;16.50;85.70;;;;;;5093899;28;20108;-76
2021/09/06 00:36:11;;;;;;;25.58;18.17;;;16.50;86.50;;;;;;5074302;28;20047;-76
2021/09/06 00:38:36;;;;;;;23.08;17.58;;;16.40;86.00;;;;;;5095090;28;20449;-76
2021/09/06 00:41:02;;;;;;;23.92;18.30;;;16.40;86.00;;;;;;5104859;28;20028;-76
2021/09/06 00:43:28;;;;;;;26.52;17.85;;;16.40;86.10;;;;;;5108637;28;20503;-76
2021/09/06 00:45:56;;;;;;;25.63;19.38;;;16.30;86.20;;;;;;5109580;28;20114;-76
2021/09/06 00:48:24;;;;;;;29.50;19.95;;;16.30;86.40;;;;;;5093771;28;20396;-76
2021/09/06 00:50:52;;;;;;;28.75;19.92;;;16.30;86.50;;;;;;5101977;28;20377;-76
2021/09/06 00:53:19;;;;;;;28.85;18.95;;;16.30;86.50;;;;;;5110089;28;20023;-76
2021/09/06 00:55:44;;;;;;;29.02;19.35;;;16.30;86.50;;;;;;5107995;28;20135;-77
2021/09/06 00:58:10;;;;;;;26.60;18.90;;;16.20;86.40;;;;;;5095883;28;20535;-75
2021/09/06 01:00:36;;;;;;;30.23;20.23;;;16.20;86.50;;;;;;5080103;28;20081;-76
2021/09/06 01:03:02;;;;;;;30.38;19.77;;;16.20;86.60;;;;;;5066789;28;20028;-76
2021/09/06 01:05:28;;;;;;;28.33;18.65;;;16.20;86.60;;;;;;5097513;28;20488;-76
2021/09/06 01:07:54;;;;;;;27.85;19.13;;;16.20;86.60;;;;;;5094744;28;20666;-76
2021/09/06 01:10:19;;;;;;;29.45;19.80;;;16.10;86.60;;;;;;5097316;28;20120;-76
2021/09/06 01:12:45;;;;;;;32.10;20.17;;;16.10;86.70;;;;;;5102204;28;20028;-76
2021/09/06 01:15:12;;;;;;;30.83;20.08;;;16.10;86.80;;;;;;5097002;28;20051;-76
2021/09/06 01:17:38;;;;;;;26.67;18.60;;;16.10;86.80;;;;;;5101516;28;20073;-76
2021/09/06 01:20:08;;;;;;;27.52;20.27;;;16.00;86.90;;;;;;5112844;28;20020;-76
2021/09/06 01:22:34;;;;;;;27.75;19.48;;;16.00;86.90;;;;;;5090418;28;20036;-76
2021/09/06 01:25:00;;;;;;;26.35;19.90;;;16.00;87.00;;;;;;5083901;28;20474;-76
2021/09/06 01:27:26;;;;;;;26.95;19.83;;;16.00;87.20;;;;;;5106916;28;20032;-76
2021/09/06 01:29:53;;;;;;;27.42;18.42;;;15.90;87.30;;;;;;5099230;28;20031;-76
2021/09/06 01:32:18;;;;;;;25.17;19.17;;;15.90;87.30;;;;;;5104277;28;20051;-76
2021/09/06 01:34:44;;;;;;;29.23;19.73;;;15.90;87.40;;;;;;5110956;28;20023;-76
2021/09/06 01:37:10;;;;;;;26.92;18.48;;;15.90;87.40;;;;;;5105291;28;20036;-76
2021/09/06 01:39:35;;;;;;;27.73;19.95;;;15.80;87.40;;;;;;5081857;28;20846;-76
2021/09/06 01:42:01;;;;;;;27.55;19.38;;;15.80;87.40;;;;;;5102274;28;20115;-76
2021/09/06 01:44:27;;;;;;;26.67;19.35;;;15.80;87.50;;;;;;5111710;28;20404;-76
2021/09/06 01:46:52;;;;;;;28.90;20.00;;;15.80;87.50;;;;;;5112976;28;20496;-76
2021/09/06 01:49:18;;;;;;;29.52;18.95;;;15.80;87.60;;;;;;5113382;28;20024;-76
2021/09/06 01:51:44;;;;;;;31.15;20.52;;;15.80;87.70;;;;;;5078048;28;20469;-76
2021/09/06 01:54:09;;;;;;;29.42;20.38;;;15.70;87.70;;;;;;5093534;28;20035;-76
2021/09/06 01:56:36;;;;;;;33.50;21.83;;;15.70;87.80;;;;;;5099150;28;20054;-76
2021/09/06 01:59:02;;;;;;;26.23;19.83;;;15.70;87.80;;;;;;5100490;28;20028;-76
2021/09/06 02:01:27;;;;;;;29.75;20.23;;;15.70;87.90;;;;;;5095845;28;20442;-76
2021/09/06 02:03:53;;;;;;;30.17;21.00;;;15.70;88.60;;;;;;5071021;28;20089;-76
2021/09/06 02:06:18;;;;;;;28.88;20.85;;;15.70;88.10;;;;;;5113066;28;20062;-76
2021/09/06 02:08:44;;;;;;;31.38;19.92;;;15.70;88.20;;;;;;5102551;28;20077;-76
2021/09/06 02:11:10;;;;;;;27.25;19.25;;;15.60;88.20;;;;;;5111083;28;20495;-76
2021/09/06 02:13:36;;;;;;;29.90;20.67;;;15.60;88.30;;;;;;5101054;28;20074;-76
2021/09/06 02:16:02;;;;;;;36.28;21.27;;;15.60;88.30;;;;;;5109496;28;20040;-76
2021/09/06 02:18:27;;;;;;;28.70;20.48;;;15.50;88.50;;;;;;5098757;28;20028;-76
2021/09/06 02:20:53;;;;;;;28.67;20.75;;;15.50;88.70;;;;;;5107974;28;20488;-76
2021/09/06 02:23:19;;;;;;;31.58;21.00;;;15.50;89.40;;;;;;5095830;28;20040;-75
2021/09/06 02:25:45;;;;;;;27.33;20.02;;;15.40;88.90;;;;;;5107054;28;20032;-76
2021/09/06 02:28:11;;;;;;;27.73;20.08;;;15.40;88.90;;;;;;5107449;28;20039;-76
2021/09/06 02:30:36;;;;;;;29.85;20.73;;;15.40;88.90;;;;;;5103763;28;20049;-76
2021/09/06 02:33:02;;;;;;;29.38;20.02;;;15.40;89.00;;;;;;5093933;28;20487;-76
2021/09/06 02:35:28;;;;;;;33.17;21.00;;;15.40;89.00;;;;;;5083628;28;20122;-76
2021/09/06 02:37:53;;;;;;;31.90;21.10;;;15.40;88.90;;;;;;5085320;28;20023;-76
2021/09/06 02:40:19;;;;;;;35.60;20.80;;;15.40;88.90;;;;;;5100626;28;20036;-76
2021/09/06 02:42:46;;;;;;;33.63;21.52;;;15.40;88.90;;;;;;5101352;28;20028;-76
2021/09/06 02:45:12;;;;;;;31.77;19.98;;;15.40;89.10;;;;;;5097967;28;20043;-76
2021/09/06 02:47:37;;;;;;;29.00;19.73;;;15.30;89.20;;;;;;5100230;28;20028;-76
2021/09/06 02:50:04;;;;;;;27.60;20.85;;;15.30;89.40;;;;;;5100606;28;20418;-76
2021/09/06 02:52:31;;;;;;;31.73;20.48;;;15.30;89.50;;;;;;5104450;28;20382;-76
2021/09/06 02:54:56;;;;;;;32.22;20.58;;;15.30;89.60;;;;;;5095047;28;20103;-76
2021/09/06 02:57:22;;;;;;;29.85;19.50;;;15.20;89.60;;;;;;5108039;28;20131;-76
2021/09/06 02:59:47;;;;;;;30.52;20.67;;;15.20;89.80;;;;;;5106409;28;20036;-76
2021/09/06 03:02:13;;;;;;;30.98;20.08;;;15.20;89.80;;;;;;5094274;28;20028;-75
2021/09/06 03:04:39;;;;;;;31.98;19.77;;;15.20;89.90;;;;;;5101999;28;20050;-76
2021/09/06 03:07:04;;;;;;;33.20;20.92;;;15.10;89.80;;;;;;5105466;28;20119;-76
2021/09/06 03:09:30;;;;;;;31.38;19.75;;;15.20;89.90;;;;;;5097571;28;20042;-76
2021/09/06 03:11:56;;;;;;;28.02;19.05;;;15.10;89.80;;;;;;5076274;28;20026;-76
2021/09/06 03:14:21;;;;;;;31.30;20.67;;;15.10;89.80;;;;;;5099187;28;20032;-76
2021/09/06 03:16:47;;;;;;;32.63;21.42;;;15.10;90.00;;;;;;5095084;28;20388;-76
2021/09/06 03:19:12;;;;;;;29.60;20.83;;;15.00;90.00;;;;;;5103194;28;20036;-76
2021/09/06 03:21:38;;;;;;;34.28;21.83;;;15.00;90.00;;;;;;5099442;28;20031;-75
2021/09/06 03:24:04;;;;;;;32.20;20.48;;;15.00;90.00;;;;;;5075799;28;20068;-76
2021/09/06 03:26:30;;;;;;;28.63;20.45;;;15.00;90.10;;;;;;5098477;28;20589;-77
2021/09/06 03:28:55;;;;;;;35.55;21.85;;;15.00;90.00;;;;;;5091323;28;20031;-76
2021/09/06 03:31:21;;;;;;;29.40;20.23;;;15.00;90.10;;;;;;5082117;28;20027;-75
2021/09/06 03:33:47;;;;;;;37.17;23.77;;;15.00;90.10;;;;;;5091365;28;20174;-76
2021/09/06 03:36:12;;;;;;;32.83;20.70;;;15.00;90.10;;;;;;5095495;28;20028;-76
2021/09/06 03:38:38;;;;;;;32.03;21.00;;;14.90;90.00;;;;;;5090556;28;20037;-76
2021/09/06 03:41:04;;;;;;;30.25;20.58;;;15.00;90.20;;;;;;5078882;28;20069;-76
2021/09/06 03:43:30;;;;;;;28.20;20.17;;;15.00;90.00;;;;;;5091555;28;20024;-76
2021/09/06 03:45:55;;;;;;;33.80;22.05;;;14.90;89.80;;;;;;5109430;28;20506;-76
2021/09/06 03:48:21;;;;;;;33.95;20.58;;;14.90;89.80;;;;;;5113137;28;20019;-76
2021/09/06 03:50:46;;;;;;;33.28;22.42;;;14.90;89.80;;;;;;5089414;28;20503;-76
2021/09/06 03:53:12;;;;;;;34.63;21.35;;;14.90;89.80;;;;;;5075726;28;20036;-76
2021/09/06 03:55:39;;;;;;;32.92;22.60;;;14.80;89.90;;;;;;5092736;28;20036;-76
2021/09/06 03:58:04;;;;;;;34.08;21.55;;;14.80;90.00;;;;;;5095490;28;20031;-75
2021/09/06 04:00:30;;;;;;;29.88;20.67;;;14.80;90.10;;;;;;5093686;28;20035;-75
2021/09/06 04:02:56;;;;;;;34.70;23.27;;;14.80;90.10;;;;;;5107279;28;20058;-77
2021/09/06 04:05:21;;;;;;;32.15;21.70;;;14.80;90.10;;;;;;5095979;28;20028;-76
2021/09/06 04:07:47;;;;;;;36.78;23.75;;;14.80;90.10;;;;;;5103909;28;20032;-80
2021/09/06 04:10:13;;;;;;;32.05;21.83;;;14.70;90.20;;;;;;5104955;28;20023;-75
2021/09/06 04:12:39;;;;;;;34.28;23.17;;;14.70;90.20;;;;;;5098553;28;20024;-74
2021/09/06 04:15:05;;;;;;;34.15;23.15;;;14.70;90.10;;;;;;5098303;28;20093;-75
2021/09/06 04:17:31;;;;;;;31.30;21.60;;;14.60;90.10;;;;;;5102602;28;20039;-75
2021/09/06 04:19:57;;;;;;;35.15;22.63;;;14.60;90.20;;;;;;5099426;28;20153;-75
2021/09/06 04:22:22;;;;;;;32.83;20.92;;;14.60;90.10;;;;;;5100799;28;20028;-74
2021/09/06 04:24:48;;;;;;;36.53;21.58;;;14.60;90.20;;;;;;5098374;28;20420;-74
2021/09/06 04:27:14;;;;;;;37.92;22.77;;;14.60;90.30;;;;;;5082494;28;20035;-74
2021/09/06 04:29:39;;;;;;;36.35;22.52;;;14.60;90.30;;;;;;5099851;28;20062;-74
2021/09/06 04:32:06;;;;;;;33.58;22.05;;;14.60;90.30;;;;;;5101745;28;20550;-74
2021/09/06 04:34:32;;;;;;;32.38;22.67;;;14.60;90.20;;;;;;5082841;28;20250;-75
2021/09/06 04:36:58;;;;;;;31.70;21.45;;;14.60;90.20;;;;;;5103720;28;20035;-75
2021/09/06 04:39:23;;;;;;;29.42;20.15;;;14.50;90.10;;;;;;5100611;28;20035;-74
2021/09/06 04:41:49;;;;;;;38.05;23.23;;;14.50;90.10;;;;;;5105608;28;20110;-75
2021/09/06 04:44:15;;;;;;;31.80;22.17;;;14.50;90.10;;;;;;5090599;28;20030;-74
2021/09/06 04:46:40;;;;;;;31.95;22.15;;;14.50;90.10;;;;;;5086093;28;20035;-74
2021/09/06 04:49:06;;;;;;;35.22;21.75;;;14.50;90.20;;;;;;5107727;28;20106;-75
2021/09/06 04:51:31;;;;;;;34.75;22.83;;;14.50;90.20;;;;;;5097824;28;20040;-75
2021/09/06 04:53:57;;;;;;;35.13;22.38;;;14.50;90.30;;;;;;5079999;28;20027;-75
2021/09/06 04:56:23;;;;;;;34.03;21.45;;;14.50;90.40;;;;;;5103872;28;20040;-75
2021/09/06 04:58:50;;;;;;;35.55;23.08;;;14.50;90.40;;;;;;5090323;28;20073;-75
2021/09/06 05:01:16;;;;;;;31.95;21.52;;;14.40;90.40;;;;;;5104961;28;20024;-75
2021/09/06 05:03:41;;;;;;;37.95;24.05;;;14.40;90.40;;;;;;5096079;28;20036;-75
2021/09/06 05:06:07;;;;;;;31.85;21.38;;;14.40;90.50;;;;;;5092260;28;20031;-75
2021/09/06 05:08:33;;;;;;;34.60;22.08;;;14.40;90.50;;;;;;5106142;28;20023;-75
2021/09/06 05:10:58;;;;;;;34.72;22.90;;;14.50;90.60;;;;;;5090957;28;20056;-75
2021/09/06 05:13:25;;;;;;;33.58;22.30;;;14.50;90.50;;;;;;5114913;28;20107;-75
2021/09/06 05:15:51;;;;;;;36.13;22.45;;;14.40;90.50;;;;;;5116066;28;20039;-75
2021/09/06 05:18:16;;;;;;;39.10;22.67;;;14.50;90.50;;;;;;5096712;28;20119;-75
2021/09/06 05:20:42;;;;;;;34.22;21.48;;;14.50;90.50;;;;;;5111805;28;20541;-75
2021/09/06 05:23:08;;;;;;;34.30;20.80;;;14.50;90.50;;;;;;5076581;28;20024;-75
2021/09/06 05:25:34;;;;;;;41.35;23.50;;;14.50;90.40;;;;;;5077422;28;20119;-75
2021/09/06 05:28:00;;;;;;;32.75;20.80;;;14.40;90.40;;;;;;5094735;28;20060;-75
2021/09/06 05:30:26;;;;;;;39.92;23.75;;;14.40;90.40;;;;;;5112228;28;20587;-75
2021/09/06 05:32:52;;;;;;;31.92;21.70;;;14.40;90.50;;;;;;5109436;28;20035;-75
2021/09/06 05:35:18;;;;;;;33.45;20.92;;;14.40;90.60;;;;;;5105984;28;20023;-75
2021/09/06 05:37:44;;;;;;;29.85;20.42;;;14.40;90.60;;;;;;5099461;28;20047;-75
2021/09/06 05:40:10;;;;;;;36.80;21.55;;;14.40;90.50;;;;;;5092882;28;20035;-76
2021/09/06 05:42:35;;;;;;;29.92;20.90;;;14.40;90.50;;;;;;5107811;28;20043;-75
2021/09/06 05:45:02;;;;;;;33.33;21.10;;;14.50;90.50;;;;;;5093736;28;20381;-75
2021/09/06 05:47:28;;;;;;;31.00;20.38;;;14.50;90.50;;;;;;5106551;28;20396;-75
2021/09/06 05:49:53;;;;;;;36.40;20.95;;;14.50;90.50;;;;;;5107831;28;20126;-75
2021/09/06 05:52:19;;;;;;;35.47;20.83;;;14.50;90.60;;;;;;5103904;28;20043;-75
2021/09/06 05:54:45;;;;;;;35.08;21.45;;;14.50;90.50;;;;;;5110251;28;20110;-75
2021/09/06 05:57:10;;;;;;;33.70;21.25;;;14.60;90.60;;;;;;5092859;28;20210;-76
2021/09/06 05:59:36;;;;;;;30.63;20.15;;;14.60;90.50;;;;;;5080483;28;20058;-76
2021/09/06 06:02:02;;;;;;;33.78;22.45;;;14.70;90.60;;;;;;5078730;28;20032;-76
2021/09/06 06:04:27;;;;;;;33.90;21.52;;;14.70;90.50;;;;;;5102480;28;20027;-76
2021/09/06 06:06:53;;;;;;;32.63;19.85;;;14.80;90.60;;;;;;5097020;28;20063;-76
2021/09/06 06:09:18;;;;;;;31.83;22.40;;;14.80;90.50;;;;;;5079513;28;20025;-76
2021/09/06 06:11:44;;;;;;;35.15;22.38;;;14.90;90.50;;;;;;5079966;28;20035;-76
2021/09/06 06:14:10;;;;;;;37.67;23.42;;;15.00;90.50;;;;;;5113791;28;20024;-75
2021/09/06 06:16:36;;;;;;;34.50;22.73;;;15.00;90.50;;;;;;5113891;28;20027;-76
2021/09/06 06:19:02;;;;;;;36.72;22.67;;;15.10;90.80;;;;;;5107229;28;20090;-75
2021/09/06 06:21:29;;;;;;;34.05;21.55;;;15.20;90.70;;;;;;5098985;28;20085;-75
2021/09/06 06:23:55;;;;;;;36.35;23.05;;;15.20;90.40;;;;;;5093405;28;20132;-75
2021/09/06 06:26:22;;;;;;;35.50;24.27;;;15.30;90.40;;;;;;5113324;28;20023;-75
2021/09/06 06:28:48;;;;;;;46.63;27.50;;;15.30;90.40;;;;;;5113700;28;20032;-75
2021/09/06 06:31:14;;;;;;;40.50;24.40;;;15.30;90.50;;;;;;5113324;28;20519;-75
2021/09/06 06:33:39;;;;;;;37.40;24.15;;;15.30;90.50;;;;;;5101786;28;20088;-75
2021/09/06 06:36:05;;;;;;;40.45;24.40;;;15.40;90.50;;;;;;5092885;28;20032;-76
2021/09/06 06:38:33;;;;;;;35.72;24.00;;;15.50;90.40;;;;;;5092483;28;20028;-75
2021/09/06 06:41:00;;;;;;;39.17;25.05;;;15.50;90.40;;;;;;5092375;28;20421;-75
2021/09/06 06:43:26;;;;;;;35.13;23.13;;;15.60;90.30;;;;;;5076104;28;20025;-75
2021/09/06 06:45:52;;;;;;;36.88;24.00;;;15.70;90.30;;;;;;5094739;28;20028;-75
2021/09/06 06:48:18;;;;;;;32.17;23.13;;;15.80;90.20;;;;;;5114353;28;20450;-75
2021/09/06 06:50:43;;;;;;;36.20;24.40;;;15.80;90.10;;;;;;5114191;28;20020;-75
2021/09/06 06:53:09;;;;;;;37.63;24.85;;;15.90;90.00;;;;;;5096075;28;20077;-75
2021/09/06 06:55:35;;;;;;;39.13;25.13;;;16.00;90.00;;;;;;5114026;28;20032;-75
2021/09/06 06:58:00;;;;;;;42.15;26.80;;;16.10;90.00;;;;;;5079150;28;20591;-75
2021/09/06 07:00:26;;;;;;;39.83;26.17;;;16.20;89.60;;;;;;5112053;28;20039;-75
2021/09/06 07:02:52;;;;;;;38.78;24.67;;;16.30;89.40;;;;;;5112723;28;20020;-75
2021/09/06 07:05:17;;;;;;;40.00;24.55;;;16.40;89.20;;;;;;5101878;28;20036;-75
2021/09/06 07:07:43;;;;;;;42.45;26.23;;;16.50;89.00;;;;;;5081669;28;20485;-75
2021/09/06 07:10:10;;;;;;;41.55;26.25;;;16.60;88.70;;;;;;5097216;28;20417;-75
2021/09/06 07:12:37;;;;;;;38.60;24.90;;;16.80;89.00;;;;;;5112735;28;20692;-74
2021/09/06 07:15:04;;;;;;;43.30;26.90;;;16.90;88.10;;;;;;5099176;28;20024;-75
2021/09/06 07:17:30;;;;;;;37.28;24.40;;;17.10;88.00;;;;;;5111146;28;20031;-75
2021/09/06 07:19:56;;;;;;;43.80;26.60;;;17.20;87.60;;;;;;5107328;28;20085;-75
2021/09/06 07:22:22;;;;;;;42.80;27.45;;;17.40;86.80;;;;;;5111995;28;20038;-75
2021/09/06 07:24:48;;;;;;;40.08;24.63;;;17.40;86.10;;;;;;5081434;28;20036;-75
2021/09/06 07:27:13;;;;;;;42.47;25.63;;;17.60;85.90;;;;;;5074851;28;20362;-75
2021/09/06 07:29:39;;;;;;;41.58;27.88;;;17.70;85.60;;;;;;5091595;28;20035;-75
2021/09/06 07:32:05;;;;;;;36.60;25.90;;;17.80;85.60;;;;;;5091776;28;20032;-75
2021/09/06 07:34:35;;;;;;;39.65;26.52;;;18.00;85.50;;;;;;5074819;28;20036;-76
2021/09/06 07:37:04;;;;;;;36.80;24.98;;;18.10;85.10;;;;;;5092784;28;20058;-75
2021/09/06 07:39:31;;;;;;;37.25;25.77;;;18.30;84.80;;;;;;5094869;28;20023;-75
2021/09/06 07:41:57;;;;;;;38.55;26.08;;;18.40;84.30;;;;;;5111445;28;20031;-75
2021/09/06 07:44:22;;;;;;;47.97;27.00;;;18.60;84.10;;;;;;5113193;28;20050;-75
2021/09/06 07:46:48;;;;;;;38.40;24.73;;;18.70;84.30;;;;;;5111736;28;20039;-75
2021/09/06 07:49:13;;;;;;;35.53;24.52;;;18.90;83.30;;;;;;5107119;28;20036;-74
2021/09/06 07:51:39;;;;;;;36.70;24.17;;;19.00;83.00;;;;;;5100616;28;20035;-75
2021/09/06 07:54:06;;;;;;;37.10;23.52;;;19.10;82.60;;;;;;5091455;28;20035;-75
2021/09/06 07:56:32;;;;;;;38.50;25.35;;;19.20;82.20;;;;;;5091033;28;20048;-75
2021/09/06 07:58:58;;;;;;;38.30;25.30;;;19.30;81.70;;;;;;5092334;28;20031;-75
2021/09/06 08:01:23;;;;;;;39.97;25.80;;;19.30;81.50;;;;;;5074222;28;20061;-75
2021/09/06 08:03:49;;;;;;;40.03;24.77;;;19.40;81.50;;;;;;5081648;28;20430;-76
2021/09/06 08:06:14;;;;;;;38.20;25.30;;;19.50;81.30;;;;;;5074669;28;20032;-76
2021/09/06 08:08:40;;;;;;;35.08;24.20;;;19.70;81.40;;;;;;5074670;28;20024;-76
2021/09/06 08:11:06;;;;;;;40.25;26.13;;;19.80;80.50;;;;;;5082894;28;20040;-77
2021/09/06 08:13:31;;;;;;;34.80;25.27;;;19.90;79.90;;;;;;5058278;28;20496;-77
2021/09/06 08:15:57;;;;;;;39.67;25.88;;;20.00;79.20;;;;;;5093084;28;20381;-77
2021/09/06 08:18:22;;;;;;;36.95;25.20;;;20.10;79.90;;;;;;5065385;28;20020;-76
2021/09/06 08:20:48;;;;;;;35.05;24.73;;;20.10;79.30;;;;;;5059463;28;20052;-76
2021/09/06 08:23:14;;;;;;;37.08;23.15;;;20.20;78.60;;;;;;5111673;28;20058;-76
2021/09/06 08:25:39;;;;;;;33.83;22.65;;;20.40;78.10;;;;;;5107596;28;20061;-76
2021/09/06 08:28:05;;;;;;;41.50;23.95;;;20.50;78.00;;;;;;5073363;28;20392;-76
2021/09/06 08:30:31;;;;;;;36.10;22.33;;;20.60;76.80;;;;;;5073936;28;20028;-76
2021/09/06 08:32:56;;;;;;;28.77;20.45;;;20.70;77.60;;;;;;5071307;28;20043;-76
2021/09/06 08:35:22;;;;;;;35.15;21.75;;;20.90;76.70;;;;;;5104492;28;20024;-76
2021/09/06 08:37:48;;;;;;;33.88;21.38;;;21.00;75.90;;;;;;5094394;28;20112;-76
2021/09/06 08:40:14;;;;;;;31.05;19.58;;;21.10;75.50;;;;;;5093740;28;20049;-76
2021/09/06 08:42:40;;;;;;;36.13;22.52;;;21.30;75.70;;;;;;5110363;28;20031;-76
2021/09/06 08:45:08;;;;;;;32.90;21.90;;;21.40;75.60;;;;;;5109181;28;20031;-76
2021/09/06 08:47:34;;;;;;;31.13;20.13;;;21.40;75.10;;;;;;5102238;28;20024;-76
2021/09/06 08:50:00;;;;;;;35.65;21.52;;;21.50;74.50;;;;;;5099543;28;20036;-76
2021/09/06 08:52:26;;;;;;;29.77;19.85;;;21.60;73.40;;;;;;5107205;28;20031;-76
2021/09/06 08:54:52;;;;;;;31.33;21.02;;;21.70;73.90;;;;;;5111825;28;20031;-77
2021/09/06 08:57:19;;;;;;;28.05;18.55;;;21.70;73.10;;;;;;5093105;28;20073;-77
2021/09/06 08:59:44;;;;;;;28.55;18.08;;;21.80;72.70;;;;;;5103450;28;20024;-77
2021/09/06 09:02:11;;;;;;;28.08;18.35;;;21.90;72.00;;;;;;5111742;28;20400;-77
2021/09/06 09:04:38;;;;;;;27.88;19.73;;;22.00;72.10;;;;;;5108201;28;20028;-77
2021/09/06 09:07:04;;;;;;;27.48;17.77;;;22.20;71.80;;;;;;5091157;28;20059;-77
2021/09/06 09:09:40;;;;;;;26.02;18.58;;;22.20;71.60;;;;;;5086793;28;20028;-78
2021/09/06 09:12:12;;;;;;;30.48;19.40;;;22.30;70.90;;;;;;5108638;28;20055;-77
2021/09/06 09:14:41;;;;;;;24.35;17.67;;;22.30;71.20;;;;;;5104373;28;20024;-78
2021/09/06 09:17:08;;;;;;;27.85;17.88;;;22.40;71.00;;;;;;5108962;28;20145;-77
2021/09/06 09:19:34;;;;;;;28.60;17.05;;;22.40;70.70;;;;;;5094157;28;20028;-77
2021/09/06 09:22:09;;;;;;;29.98;17.50;;;22.50;70.60;;;;;;5094518;28;20028;-78
2021/09/06 09:24:38;;;;;;;25.23;16.98;;;22.60;70.60;;;;;;5094946;28;20063;-78
2021/09/06 09:27:07;;;;;;;29.30;17.40;;;22.60;70.20;;;;;;5095063;28;20028;-78
2021/09/06 09:29:33;;;;;;;23.48;15.88;;;22.70;69.90;;;;;;5112958;28;20016;-77
2021/09/06 09:32:05;;;;;;;25.38;15.35;;;22.70;69.90;;;;;;5114748;28;20038;-78
2021/09/06 09:34:35;;;;;;;25.15;16.23;;;22.80;68.40;;;;;;5115318;28;20139;-78
2021/09/06 09:37:01;;;;;;;24.65;15.75;;;22.90;67.90;;;;;;5115670;28;20031;-79
2021/09/06 09:39:27;;;;;;;21.23;14.30;;;23.00;67.60;;;;;;5098020;28;20039;-78
2021/09/06 09:42:09;;;;;;;28.90;15.45;;;23.00;66.70;;;;;;5094433;28;20166;-78
2021/09/06 09:44:49;;;;;;;24.00;15.35;;;23.10;65.60;;;;;;5114583;28;20521;-78
2021/09/06 09:47:19;;;;;;;26.42;15.50;;;23.10;65.90;;;;;;5094627;28;20051;-78
2021/09/06 09:49:46;;;;;;;25.17;15.52;;;23.10;66.30;;;;;;5104730;28;20089;-78
2021/09/06 09:52:11;;;;;;;21.35;14.80;;;23.20;65.70;;;;;;5104454;28;20051;-79
2021/09/06 09:54:37;;;;;;;16.98;13.40;;;23.20;65.10;;;;;;5077052;28;20028;-79
2021/09/06 09:57:03;;;;;;;23.40;15.23;;;23.30;64.90;;;;;;5093916;28;20044;-78
2021/09/06 09:59:29;;;;;;;27.40;16.88;;;23.40;65.30;;;;;;5076942;28;20040;-78
2021/09/06 10:02:05;;;;;;;26.25;17.13;;;23.50;65.00;;;;;;5112225;28;20042;-78
2021/09/06 10:04:33;;;;;;;26.70;15.45;;;23.60;63.90;;;;;;5093442;28;20082;-79
2021/09/06 10:07:00;;;;;;;24.95;16.48;;;23.60;64.20;;;;;;5106357;28;20042;-78
2021/09/06 10:09:39;;;;;;;27.80;15.30;;;23.70;62.20;;;;;;5106355;28;20042;-77
2021/09/06 10:12:05;;;;;;;;;;;23.70;61.80;;;;;;5106963;28;20019;-78
2021/09/06 10:14:32;;;;;;;24.25;14.15;;;23.80;61.20;;;;;;5100115;28;19908;-78
2021/09/06 10:17:06;;;;;;;20.92;15.35;;;23.80;61.70;;;;;;5100221;28;20032;-78
2021/09/06 10:19:44;;;;;;;18.30;13.63;;;23.90;61.00;;;;;;5113628;28;20477;-78
2021/09/06 10:22:26;;;;;;;20.83;14.85;;;24.00;61.20;;;;;;5105729;28;20165;-78
2021/09/06 10:24:56;;;;;;;19.95;14.38;;;24.10;61.00;;;;;;5110842;28;20032;-77
2021/09/06 10:27:21;;;;;;;19.85;13.63;;;24.10;60.50;;;;;;5092752;28;20031;-77
2021/09/06 10:30:01;;;;;;;26.63;14.60;;;24.20;61.00;;;;;;5109521;28;20476;-80
2021/09/06 10:32:36;;;;;;;18.95;13.77;;;24.30;61.60;;;;;;5114023;28;20023;-79
2021/09/06 10:35:20;;;;;;;18.55;13.77;;;24.30;61.60;;;;;;5102721;28;20089;-79
2021/09/06 10:37:47;;;;;;;21.70;14.77;;;24.50;60.40;;;;;;5092821;28;20370;-77
2021/09/06 10:40:26;;;;;;;21.38;14.00;;;24.60;59.80;;;;;;5091760;28;20027;-77
2021/09/06 10:42:51;;;;;;;19.23;13.60;;;24.60;59.40;;;;;;5092769;28;20127;-77
2021/09/06 10:45:18;;;;;;;24.90;15.05;;;24.70;60.10;;;;;;5092820;28;20127;-77
2021/09/06 10:47:43;;;;;;;21.92;12.50;;;24.70;58.60;;;;;;5076438;28;20111;-77
2021/09/06 10:50:22;;;;;;;19.90;13.32;;;24.70;58.80;;;;;;5092572;28;20111;-77
2021/09/06 10:52:49;;;;;;;;;;;24.70;58.10;;;;;;5076338;28;20047;-77
2021/09/06 10:55:16;;;;;;;18.00;11.85;;;24.60;58.80;;;;;;5091948;28;19927;-77
2021/09/06 10:57:44;;;;;;;19.63;13.90;;;24.60;59.20;;;;;;5092586;28;20048;-77
2021/09/06 11:00:21;;;;;;;18.25;12.95;;;24.70;58.00;;;;;;5094093;28;20028;-77
2021/09/06 11:02:49;;;;;;;17.73;12.60;;;24.70;59.00;;;;;;5112988;28;20023;-77
2021/09/06 11:05:23;;;;;;;17.17;12.35;;;24.80;59.00;;;;;;5094556;28;20028;-77
2021/09/06 11:07:50;;;;;;;19.83;13.32;;;25.00;58.10;;;;;;5093715;28;20032;-77
2021/09/06 11:10:22;;;;;;;20.70;13.88;;;25.00;58.10;;;;;;5075628;28;20029;-77
2021/09/06 11:12:56;;;;;;;19.88;12.50;;;25.10;57.40;;;;;;5092668;28;20038;-77
2021/09/06 11:15:40;;;;;;;23.17;14.60;;;25.20;57.10;;;;;;5093806;28;20077;-77
2021/09/06 11:18:08;;;;;;;19.65;12.15;;;25.40;56.60;;;;;;5098004;28;20026;-77
2021/09/06 11:20:36;;;;;;;17.08;12.27;;;25.40;57.30;;;;;;5114011;28;20015;-77
2021/09/06 11:23:05;;;;;;;16.48;12.00;;;25.40;56.50;;;;;;5112643;28;20436;-77
2021/09/06 11:25:33;;;;;;;24.15;13.15;;;25.30;57.30;;;;;;5112306;28;20032;-77
2021/09/06 11:28:11;;;;;;;16.80;11.60;;;25.40;56.80;;;;;;5114014;28;20110;-77
2021/09/06 11:30:39;;;;;;;14.93;10.85;;;25.40;56.60;;;;;;5112369;28;20020;-77
2021/09/06 11:33:06;;;;;;;;;;;25.40;56.90;;;;;;5102536;28;20034;-77
2021/09/06 11:35:35;;;;;;;14.93;10.88;;;25.40;56.30;;;;;;5091937;28;20336;-78
2021/09/06 11:38:02;;;;;;;20.33;12.65;;;25.50;56.90;;;;;;5074694;28;20035;-78
2021/09/06 11:40:29;;;;;;;16.40;12.10;;;25.60;55.50;;;;;;5058513;28;20047;-77
2021/09/06 11:42:56;;;;;;;16.35;11.70;;;25.60;54.60;;;;;;5092198;28;20031;-77
2021/09/06 11:45:23;;;;;;;23.07;13.63;;;25.60;53.80;;;;;;5093393;28;20035;-77
2021/09/06 11:47:49;;;;;;;20.85;12.48;;;25.60;53.70;;;;;;5091791;28;20028;-77
2021/09/06 11:50:16;;;;;;;22.80;13.45;;;25.60;54.60;;;;;;5092258;28;20055;-78
2021/09/06 11:52:44;;;;;;;18.13;12.65;;;25.70;54.10;;;;;;5093293;28;20032;-77
2021/09/06 11:55:20;;;;;;;19.20;11.40;;;25.70;54.00;;;;;;5110013;28;20032;-77
2021/09/06 11:57:47;;;;;;;17.73;11.38;;;25.70;54.40;;;;;;5091728;28;20459;-78
2021/09/06 12:00:16;;;;;;;16.05;11.80;;;25.70;54.60;;;;;;5108084;28;20111;-78
2021/09/06 12:02:49;;;;;;;16.73;10.50;;;25.70;53.20;;;;;;5113313;28;20092;-77
2021/09/06 12:05:16;;;;;;;12.95;10.07;;;25.70;50.70;;;;;;5112084;28;20023;-77
2021/09/06 12:07:52;;;;;;;17.27;11.60;;;25.70;51.00;;;;;;5095073;28;20032;-77
2021/09/06 12:10:24;;;;;;;15.10;10.43;;;25.70;51.70;;;;;;5113258;28;20023;-77
2021/09/06 12:13:17;;;;;;;11.90;8.95;;;25.70;51.70;;;;;;5110558;28;20035;-77
2021/09/06 12:16:00;;;;;;;12.10;9.52;;;25.80;50.80;;;;;;5091627;28;20020;-77
2021/09/06 12:18:51;;;;;;;14.55;9.32;;;25.80;49.80;;;;;;5092747;28;20028;-77
2021/09/06 12:21:18;;;;;;;12.45;9.57;;;25.80;50.50;;;;;;5091363;28;20090;-78
2021/09/06 12:23:58;;;;;;;13.65;8.48;;;25.90;49.80;;;;;;5091487;28;20039;-77
2021/09/06 12:26:24;;;;;;;15.25;10.18;;;25.90;50.20;;;;;;5075699;28;20028;-78
2021/09/06 12:28:52;;;;;;;13.18;9.43;;;25.90;50.50;;;;;;5090518;28;20115;-77